createdAt,value
2023-02-14T00:01:09.777Z,-0.60
2023-02-14T00:03:36.745Z,-0.50
2023-02-14T00:06:12.400Z,-0.50
2023-02-14T00:08:41.178Z,-0.50
2023-02-14T00:11:09.016Z,-0.50
2023-02-14T00:13:35.898Z,-0.50
2023-02-14T00:16:03.619Z,-0.50
2023-02-14T00:18:49.113Z,-0.50
2023-02-14T00:21:17.968Z,-0.60
2023-02-14T00:23:45.118Z,-0.60
2023-02-14T00:26:15.505Z,-0.60
2023-02-14T00:28:43.342Z,-0.60
2023-02-14T00:31:10.759Z,-0.60
2023-02-14T00:33:37.687Z,-0.60
2023-02-14T00:36:07.123Z,-0.60
2023-02-14T00:38:34.389Z,-0.60
2023-02-14T00:41:02.181Z,-0.60
2023-02-14T00:43:29.316Z,-0.60
2023-02-14T00:45:57.646Z,-0.70
2023-02-14T00:48:24.609Z,-0.70
2023-02-14T00:50:51.506Z,-0.70
2023-02-14T00:53:18.344Z,-0.80
2023-02-14T00:55:46.960Z,-0.80
2023-02-14T00:58:15.073Z,-0.80
2023-02-14T01:00:41.969Z,-0.90
2023-02-14T01:03:08.807Z,-0.90
2023-02-14T01:05:35.757Z,-0.90
2023-02-14T01:08:04.429Z,-1.00
2023-02-14T01:10:31.468Z,-1.00
2023-02-14T01:12:59.165Z,-1.00
2023-02-14T01:15:27.769Z,-1.10
2023-02-14T01:17:54.654Z,-1.10
2023-02-14T01:20:22.009Z,-1.20
2023-02-14T01:22:48.924Z,-1.20
2023-02-14T01:25:16.028Z,-1.20
2023-02-14T01:27:42.842Z,-1.20
2023-02-14T01:30:11.023Z,-1.20
2023-02-14T01:32:37.847Z,-1.20
2023-02-14T01:35:05.374Z,-1.20
2023-02-14T01:37:32.236Z,-1.20
2023-02-14T01:39:59.359Z,-1.20
2023-02-14T01:42:26.704Z,-1.20
2023-02-14T01:49:21.797Z,-1.20
2023-02-14T01:52:05.712Z,-1.10
2023-02-14T01:54:35.588Z,-1.10
2023-02-14T01:57:08.028Z,-1.10
2023-02-14T01:59:40.881Z,-1.10
2023-02-14T02:02:08.325Z,-1.10
2023-02-14T02:04:41.088Z,-1.10
2023-02-14T02:07:12.307Z,-1.10
2023-02-14T02:09:44.836Z,-1.10
2023-02-14T02:12:12.292Z,-1.10
2023-02-14T02:14:39.746Z,-1.10
2023-02-14T02:17:33.835Z,-1.10
2023-02-14T02:20:47.531Z,-1.10
2023-02-14T02:23:14.223Z,-1.00
2023-02-14T02:26:01.027Z,-1.00
2023-02-14T02:28:58.425Z,-1.00
2023-02-14T02:31:49.437Z,-1.10
2023-02-14T02:34:44.532Z,-1.10
2023-02-14T02:37:30.385Z,-1.00
2023-02-14T02:40:18.110Z,-1.10
2023-02-14T02:43:15.976Z,-1.10
2023-02-14T02:46:11.652Z,-1.10
2023-02-14T02:48:57.076Z,-1.10
2023-02-14T02:52:12.845Z,-1.10
2023-02-14T02:54:47.408Z,-1.00
2023-02-14T02:57:22.577Z,-1.10
2023-02-14T02:59:50.900Z,-1.10
2023-02-14T03:02:59.798Z,-1.10
2023-02-14T03:05:30.918Z,-1.10
2023-02-14T03:07:58.029Z,-1.10
2023-02-14T03:10:30.137Z,-1.10
2023-02-14T03:12:59.562Z,-1.10
2023-02-14T03:15:35.198Z,-1.10
2023-02-14T03:18:18.349Z,-1.10
2023-02-14T03:21:06.669Z,-1.00
2023-02-14T03:23:36.718Z,-1.10
2023-02-14T03:26:10.470Z,-1.10
2023-02-14T03:28:59.209Z,-1.10
2023-02-14T03:31:36.175Z,-1.10
2023-02-14T03:34:21.115Z,-1.10
2023-02-14T03:36:56.611Z,-1.10
2023-02-14T03:39:40.396Z,-1.10
2023-02-14T03:42:18.933Z,-1.10
2023-02-14T03:44:49.190Z,-1.10
2023-02-14T03:47:20.627Z,-1.10
2023-02-14T03:49:53.452Z,-1.10
2023-02-14T03:52:22.596Z,-1.10
2023-02-14T03:54:52.643Z,-1.00
2023-02-14T03:57:30.369Z,-1.10
2023-02-14T03:59:57.501Z,-1.10
2023-02-14T04:02:39.015Z,-1.10
2023-02-14T04:05:12.897Z,-1.10
2023-02-14T04:08:06.006Z,-1.10
2023-02-14T04:10:32.780Z,-1.10
2023-02-14T04:12:59.685Z,-1.10
2023-02-14T04:15:26.425Z,-1.10
2023-02-14T04:18:12.085Z,-1.10
2023-02-14T04:20:38.882Z,-1.20
2023-02-14T04:23:05.678Z,-1.20
2023-02-14T04:25:32.466Z,-1.20
2023-02-14T04:27:59.219Z,-1.20
2023-02-14T04:30:26.120Z,-1.20
2023-02-14T04:32:52.933Z,-1.20
2023-02-14T04:35:19.754Z,-1.20
2023-02-14T04:37:46.537Z,-1.20
2023-02-14T04:40:17.305Z,-1.20
2023-02-14T04:42:47.443Z,-1.20
2023-02-14T04:45:14.936Z,-1.20
2023-02-14T04:47:41.734Z,-1.20
2023-02-14T04:50:09.022Z,-1.30
2023-02-14T04:52:35.959Z,-1.30
2023-02-14T04:55:04.400Z,-1.30
2023-02-14T04:57:31.659Z,-1.30
2023-02-14T04:59:58.446Z,-1.30
2023-02-14T05:02:25.269Z,-1.40
2023-02-14T05:04:52.122Z,-1.40
2023-02-14T05:07:18.865Z,-1.50
2023-02-14T05:09:45.629Z,-1.50
2023-02-14T05:12:12.416Z,-1.50
2023-02-14T05:14:39.198Z,-1.50
2023-02-14T05:17:06.012Z,-1.50
2023-02-14T05:19:33.940Z,-1.50
2023-02-14T05:22:00.726Z,-1.50
2023-02-14T05:24:27.636Z,-1.60
2023-02-14T05:26:54.372Z,-1.60
2023-02-14T05:29:21.248Z,-1.60
2023-02-14T05:31:48.225Z,-1.70
2023-02-14T05:34:15.217Z,-1.60
2023-02-14T05:36:42.001Z,-1.60
2023-02-14T05:39:08.791Z,-1.70
2023-02-14T05:41:35.589Z,-1.70
2023-02-14T05:44:02.415Z,-1.70
2023-02-14T05:46:29.335Z,-1.70
2023-02-14T05:48:56.096Z,-1.70
2023-02-14T05:51:22.880Z,-1.70
2023-02-14T05:53:49.671Z,-1.70
2023-02-14T05:56:16.507Z,-1.60
2023-02-14T05:58:43.911Z,-1.60
2023-02-14T06:01:10.683Z,-1.60
2023-02-14T06:03:37.455Z,-1.60
2023-02-14T06:06:04.418Z,-1.60
2023-02-14T06:08:31.234Z,-1.50
2023-02-14T06:10:58.338Z,-1.50
2023-02-14T06:13:25.376Z,-1.60
2023-02-14T06:15:52.184Z,-1.50
2023-02-14T06:18:19.056Z,-1.60
2023-02-14T06:20:45.827Z,-1.60
2023-02-14T06:23:12.662Z,-1.60
2023-02-14T06:25:39.639Z,-1.60
2023-02-14T06:28:06.692Z,-1.60
2023-02-14T06:30:33.607Z,-1.60
2023-02-14T06:33:00.478Z,-1.70
2023-02-14T06:35:27.351Z,-1.70
2023-02-14T06:37:54.238Z,-1.70
2023-02-14T06:40:21.257Z,-1.70
2023-02-14T06:42:48.030Z,-1.80
2023-02-14T06:45:14.886Z,-1.80
2023-02-14T06:47:41.708Z,-1.80
2023-02-14T06:50:11.569Z,-1.80
2023-02-14T06:52:38.907Z,-1.80
2023-02-14T06:55:06.188Z,-1.90
2023-02-14T06:57:32.992Z,-1.90
2023-02-14T06:59:59.784Z,-1.90
2023-02-14T07:02:26.610Z,-1.90
2023-02-14T07:04:53.471Z,-1.90
2023-02-14T07:07:20.250Z,-1.90
2023-02-14T07:09:47.037Z,-1.90
2023-02-14T07:12:13.828Z,-1.90
2023-02-14T07:14:40.784Z,-1.90
2023-02-14T07:17:07.622Z,-1.90
2023-02-14T07:19:34.379Z,-1.90
2023-02-14T07:22:01.280Z,-1.80
2023-02-14T07:24:28.056Z,-1.80
2023-02-14T07:26:54.822Z,-1.80
2023-02-14T07:29:21.676Z,-1.70
2023-02-14T07:31:49.953Z,-1.80
2023-02-14T07:34:16.914Z,-1.70
2023-02-14T07:36:44.198Z,-1.70
2023-02-14T07:39:11.142Z,-1.60
2023-02-14T07:41:38.013Z,-1.60
2023-02-14T07:44:09.623Z,-1.60
2023-02-14T07:46:36.526Z,-1.50
2023-02-14T07:49:03.446Z,-1.50
2023-02-14T07:51:30.238Z,-1.40
2023-02-14T07:53:56.987Z,-1.40
2023-02-14T07:56:23.965Z,-1.30
2023-02-14T07:58:50.938Z,-1.30
2023-02-14T08:01:18.238Z,-1.30
2023-02-14T08:03:49.241Z,-1.20
2023-02-14T08:06:20.101Z,-1.20
2023-02-14T08:08:47.889Z,-1.10
2023-02-14T08:11:33.993Z,-1.00
2023-02-14T08:14:01.004Z,-0.60
2023-02-14T08:16:27.874Z,-0.10
2023-02-14T08:18:54.726Z,0.40
2023-02-14T08:21:21.596Z,0.80
2023-02-14T08:23:48.408Z,1.20
2023-02-14T08:26:15.757Z,1.70
2023-02-14T08:28:43.055Z,2.20
2023-02-14T08:31:10.385Z,2.60
2023-02-14T08:33:37.164Z,3.10
2023-02-14T08:36:04.339Z,3.80
2023-02-14T08:38:31.201Z,4.30
2023-02-14T08:41:05.036Z,4.70
2023-02-14T08:43:34.473Z,5.10
2023-02-14T08:46:01.905Z,5.50
2023-02-14T08:48:28.938Z,5.70
2023-02-14T08:50:55.722Z,6.00
2023-02-14T08:53:22.753Z,6.40
2023-02-14T08:55:49.551Z,7.00
2023-02-14T08:58:16.385Z,7.60
2023-02-14T09:00:43.162Z,8.10
2023-02-14T09:03:10.664Z,8.60
2023-02-14T09:05:37.513Z,9.10
2023-02-14T09:08:04.597Z,9.50
2023-02-14T09:10:31.529Z,9.80
2023-02-14T09:12:58.342Z,10.10
2023-02-14T09:15:25.204Z,10.10
2023-02-14T09:17:52.169Z,10.20
2023-02-14T09:20:19.145Z,10.30
2023-02-14T09:22:48.422Z,10.60
2023-02-14T09:25:15.990Z,10.70
2023-02-14T09:27:42.925Z,11.00
2023-02-14T09:30:10.624Z,11.20
2023-02-14T09:32:37.415Z,11.50
2023-02-14T09:35:04.494Z,12.00
2023-02-14T09:37:50.052Z,12.50
2023-02-14T09:40:19.371Z,12.70
2023-02-14T09:43:26.054Z,12.50
2023-02-14T09:45:56.656Z,12.70
2023-02-14T09:48:29.716Z,12.70
2023-02-14T09:51:11.558Z,12.60
2023-02-14T09:53:49.875Z,12.60
2023-02-14T09:56:22.604Z,13.10
2023-02-14T09:59:19.959Z,13.60
2023-02-14T10:02:16.660Z,14.10
2023-02-14T10:05:02.172Z,14.20
2023-02-14T10:07:57.250Z,14.70
2023-02-14T10:10:44.672Z,15.20
2023-02-14T10:13:22.428Z,15.50
2023-02-14T10:15:56.750Z,15.70
2023-02-14T10:18:46.144Z,15.50
2023-02-14T10:21:22.961Z,15.60
2023-02-14T10:23:55.459Z,15.60
2023-02-14T10:26:52.020Z,16.00
2023-02-14T10:29:20.077Z,16.20
2023-02-14T10:31:55.493Z,16.40
2023-02-14T10:34:29.199Z,16.80
2023-02-14T10:36:55.952Z,17.00
2023-02-14T10:39:25.707Z,17.30
2023-02-14T10:42:09.375Z,17.60
2023-02-14T10:44:54.560Z,18.30
2023-02-14T10:47:30.601Z,18.70
2023-02-14T10:50:04.373Z,18.70
2023-02-14T10:52:58.966Z,18.90
2023-02-14T10:55:46.570Z,19.00
2023-02-14T10:58:17.520Z,19.10
2023-02-14T11:01:00.493Z,19.00
2023-02-14T11:03:29.087Z,18.90
2023-02-14T11:05:56.225Z,19.20
2023-02-14T11:08:32.040Z,19.30
2023-02-14T11:11:16.459Z,19.60
2023-02-14T11:13:43.449Z,19.60
2023-02-14T11:16:18.099Z,19.60
2023-02-14T11:18:44.932Z,19.40
2023-02-14T11:21:13.553Z,19.50
2023-02-14T11:23:43.243Z,19.70
2023-02-14T11:26:34.596Z,19.90
2023-02-14T11:29:13.212Z,19.90
2023-02-14T11:31:41.917Z,19.90
2023-02-14T11:34:42.040Z,20.00
2023-02-14T11:37:23.698Z,20.00
2023-02-14T11:39:52.253Z,20.20
2023-02-14T11:42:37.360Z,20.10
2023-02-14T11:45:05.581Z,20.30
2023-02-14T11:47:37.287Z,20.60
2023-02-14T11:50:12.690Z,21.00
2023-02-14T11:52:55.698Z,21.20
2023-02-14T11:55:34.436Z,21.50
2023-02-14T11:58:05.373Z,21.30
2023-02-14T12:00:33.621Z,21.10
2023-02-14T12:03:05.510Z,21.50
2023-02-14T12:05:43.436Z,21.70
2023-02-14T12:08:11.006Z,21.20
2023-02-14T12:10:39.188Z,20.80
2023-02-14T12:13:09.293Z,20.80
2023-02-14T12:15:47.554Z,20.90
2023-02-14T12:18:40.572Z,21.10
2023-02-14T12:21:16.037Z,21.40
2023-02-14T12:23:50.766Z,21.60
2023-02-14T12:26:35.705Z,21.80
2023-02-14T12:29:34.937Z,21.90
2023-02-14T12:32:11.376Z,21.90
2023-02-14T12:34:38.353Z,21.50
2023-02-14T12:37:28.336Z,21.60
2023-02-14T12:40:04.199Z,21.40
2023-02-14T12:42:39.983Z,20.50
2023-02-14T12:45:43.462Z,20.20
2023-02-14T12:48:28.884Z,20.40
2023-02-14T12:51:15.468Z,20.60
2023-02-14T12:53:54.382Z,20.90
2023-02-14T12:56:27.201Z,20.90
2023-02-14T12:59:18.602Z,20.90
2023-02-14T13:02:13.776Z,20.80
2023-02-14T13:05:06.257Z,20.80
2023-02-14T13:07:46.780Z,21.00
2023-02-14T13:10:24.652Z,21.20
2023-02-14T13:12:56.913Z,21.50
2023-02-14T13:15:45.589Z,21.70
2023-02-14T13:18:24.520Z,21.80
2023-02-14T13:20:56.681Z,21.60
2023-02-14T13:23:40.233Z,21.00
2023-02-14T13:26:12.045Z,20.20
2023-02-14T13:28:41.864Z,19.90
2023-02-14T13:31:11.795Z,19.80
2023-02-14T13:33:43.632Z,19.40
2023-02-14T13:36:13.357Z,18.50
2023-02-14T13:38:49.221Z,17.80
2023-02-14T13:41:17.262Z,17.80
2023-02-14T13:43:56.242Z,17.90
2023-02-14T13:46:32.246Z,18.30
2023-02-14T13:49:01.836Z,18.00
2023-02-14T13:51:56.323Z,17.90
2023-02-14T13:54:32.580Z,17.80
2023-02-14T13:57:25.214Z,17.60
2023-02-14T14:00:19.836Z,17.30
2023-02-14T14:02:53.233Z,16.30
2023-02-14T14:05:42.832Z,15.60
2023-02-14T14:08:35.438Z,15.30
2023-02-14T14:11:25.492Z,15.40
2023-02-14T14:14:01.568Z,15.10
2023-02-14T14:16:33.254Z,14.90
2023-02-14T14:19:09.264Z,15.10
2023-02-14T14:21:43.502Z,15.20
2023-02-14T14:24:27.771Z,15.20
2023-02-14T14:27:13.715Z,15.30
2023-02-14T14:29:46.077Z,15.30
2023-02-14T14:32:21.531Z,15.20
2023-02-14T14:34:50.851Z,15.20
2023-02-14T14:37:20.439Z,15.20
2023-02-14T14:40:00.001Z,15.10
2023-02-14T14:42:30.806Z,14.90
2023-02-14T14:45:01.728Z,14.70
2023-02-14T14:47:37.723Z,14.60
2023-02-14T14:50:10.211Z,14.20
2023-02-14T14:52:41.620Z,13.80
2023-02-14T14:55:16.725Z,13.70
2023-02-14T14:57:49.922Z,13.40
2023-02-14T15:00:23.938Z,13.10
2023-02-14T15:03:22.548Z,12.90
2023-02-14T15:05:51.053Z,12.40
2023-02-14T15:08:30.886Z,12.20
2023-02-14T15:11:08.450Z,11.90
2023-02-14T15:13:49.922Z,11.50
2023-02-14T15:16:48.189Z,11.20
2023-02-14T15:19:37.284Z,10.50
2023-02-14T15:22:18.228Z,10.00
2023-02-14T15:24:45.538Z,9.80
2023-02-14T15:27:16.435Z,9.70
2023-02-14T15:30:03.637Z,9.60
2023-02-14T15:32:33.160Z,9.60
2023-02-14T15:35:03.739Z,9.50
2023-02-14T15:37:31.516Z,9.30
2023-02-14T15:39:59.331Z,9.10
2023-02-14T15:42:32.919Z,8.90
2023-02-14T15:45:23.639Z,8.70
2023-02-14T15:47:53.688Z,8.40
2023-02-14T15:50:26.020Z,8.10
2023-02-14T15:52:56.262Z,7.90
2023-02-14T15:55:26.733Z,7.70
2023-02-14T15:58:01.930Z,7.30
2023-02-14T16:00:29.647Z,7.00
2023-02-14T16:03:08.460Z,6.80
2023-02-14T16:05:35.429Z,6.60
2023-02-14T16:08:22.766Z,6.30
2023-02-14T16:11:35.516Z,6.10
2023-02-14T16:14:32.214Z,5.90
2023-02-14T16:17:03.719Z,5.60
2023-02-14T16:19:41.085Z,5.30
2023-02-14T16:22:32.208Z,5.10
2023-02-14T16:24:59.490Z,4.90
2023-02-14T16:27:26.212Z,4.70
2023-02-14T16:29:53.277Z,4.50
2023-02-14T16:32:22.095Z,4.40
2023-02-14T16:34:49.625Z,4.20
2023-02-14T16:37:19.818Z,4.00
2023-02-14T16:39:47.343Z,3.80
2023-02-14T16:42:18.252Z,3.70
2023-02-14T16:44:46.082Z,3.50
2023-02-14T16:47:14.581Z,3.40
2023-02-14T16:49:41.995Z,3.30
2023-02-14T16:52:16.217Z,3.20
2023-02-14T16:54:43.283Z,3.10
2023-02-14T16:57:20.663Z,3.00
2023-02-14T16:59:47.487Z,2.90
2023-02-14T17:02:14.397Z,2.90
2023-02-14T17:04:41.143Z,2.80
2023-02-14T17:07:08.211Z,2.60
2023-02-14T17:09:40.477Z,2.60
2023-02-14T17:12:16.574Z,2.50
2023-02-14T17:14:49.329Z,2.50
2023-02-14T17:17:16.495Z,2.40
2023-02-14T17:19:43.966Z,2.30
2023-02-14T17:22:13.511Z,2.20
2023-02-14T17:24:41.690Z,2.20
2023-02-14T17:27:09.892Z,2.20
2023-02-14T17:29:37.083Z,2.20
2023-02-14T17:32:04.079Z,2.10
2023-02-14T17:34:32.360Z,2.10
2023-02-14T17:36:59.658Z,2.00
2023-02-14T17:39:26.482Z,2.00
2023-02-14T17:41:53.285Z,1.90
2023-02-14T17:44:20.052Z,1.90
2023-02-14T17:46:46.919Z,1.80
2023-02-14T17:49:13.920Z,1.80
2023-02-14T17:51:40.968Z,1.70
2023-02-14T17:54:08.136Z,1.60
2023-02-14T17:56:34.896Z,1.60
2023-02-14T17:59:01.741Z,1.60
2023-02-14T18:01:31.480Z,1.50
2023-02-14T18:03:58.395Z,1.50
2023-02-14T18:06:26.617Z,1.40
2023-02-14T18:08:56.768Z,1.40
2023-02-14T18:11:26.097Z,1.30
2023-02-14T18:13:56.405Z,1.20
2023-02-14T18:16:24.693Z,1.10
2023-02-14T18:18:51.895Z,1.10
2023-02-14T18:21:20.953Z,1.00
2023-02-14T18:23:48.416Z,0.90
2023-02-14T18:26:17.035Z,0.90
2023-02-14T18:28:43.843Z,0.90
2023-02-14T18:31:16.374Z,0.80
2023-02-14T18:33:44.005Z,0.80
2023-02-14T18:36:13.637Z,0.80
2023-02-14T18:38:41.865Z,0.80
2023-02-14T18:41:12.273Z,0.80
2023-02-14T18:43:40.974Z,0.80
2023-02-14T18:46:10.449Z,0.80
2023-02-14T18:48:37.806Z,0.70
2023-02-14T18:51:16.810Z,0.60
2023-02-14T18:53:44.905Z,0.60
2023-02-14T18:56:13.948Z,0.50
2023-02-14T18:58:42.869Z,0.40
2023-02-14T19:01:23.186Z,0.40
2023-02-14T19:03:51.312Z,0.30
2023-02-14T19:06:18.831Z,0.30
2023-02-14T19:08:46.512Z,0.20
2023-02-14T19:11:16.811Z,0.20
2023-02-14T19:13:52.663Z,0.20
2023-02-14T19:16:22.677Z,0.20
2023-02-14T19:18:55.616Z,0.20
2023-02-14T19:21:25.489Z,0.10
2023-02-14T19:23:54.556Z,0.10
2023-02-14T19:26:24.438Z,0.10
2023-02-14T19:28:56.040Z,0.00
2023-02-14T19:31:23.118Z,0.00
2023-02-14T19:33:50.337Z,-0.10
2023-02-14T19:36:19.304Z,-0.20
2023-02-14T19:38:49.200Z,-0.20
2023-02-14T19:41:25.093Z,-0.30
2023-02-14T19:43:52.579Z,-0.30
2023-02-14T19:46:21.189Z,-0.30
2023-02-14T19:48:48.730Z,-0.40
2023-02-14T19:51:27.731Z,-0.40
2023-02-14T19:53:55.919Z,-0.50
2023-02-14T19:56:25.807Z,-0.50
2023-02-14T19:58:53.162Z,-0.50
2023-02-14T20:01:30.951Z,-0.60
2023-02-14T20:03:57.793Z,-0.60
2023-02-14T20:06:25.550Z,-0.60
2023-02-14T20:08:53.013Z,-0.70
2023-02-14T20:11:31.030Z,-0.70
2023-02-14T20:13:58.476Z,-0.70
2023-02-14T20:16:27.261Z,-0.80
2023-02-14T20:19:02.256Z,-0.80
2023-02-14T20:21:31.680Z,-0.90
2023-02-14T20:24:03.057Z,-0.90
2023-02-14T20:26:31.345Z,-0.90
2023-02-14T20:29:06.179Z,-1.00
2023-02-14T20:31:34.159Z,-1.00
2023-02-14T20:34:01.496Z,-1.00
2023-02-14T20:36:28.989Z,-1.10
2023-02-14T20:38:57.016Z,-1.10
2023-02-14T20:41:24.919Z,-1.10
2023-02-14T20:43:51.844Z,-1.20
2023-02-14T20:46:18.693Z,-1.20
2023-02-14T20:48:45.417Z,-1.20
2023-02-14T20:51:15.247Z,-1.30
2023-02-14T20:53:43.445Z,-1.30
2023-02-14T20:56:10.683Z,-1.30
2023-02-14T20:58:39.383Z,-1.30
2023-02-14T21:01:10.519Z,-1.40
2023-02-14T21:03:37.550Z,-1.40
2023-02-14T21:06:06.655Z,-1.40
2023-02-14T21:08:34.316Z,-1.50
2023-02-14T21:11:01.686Z,-1.50
2023-02-14T21:13:28.865Z,-1.50
2023-02-14T21:15:55.685Z,-1.60
2023-02-14T21:18:22.443Z,-1.60
2023-02-14T21:20:50.831Z,-1.60
2023-02-14T21:23:17.623Z,-1.70
2023-02-14T21:25:44.367Z,-1.70
2023-02-14T21:28:11.179Z,-1.70
2023-02-14T21:30:38.117Z,-1.80
2023-02-14T21:33:04.893Z,-1.80
2023-02-14T21:35:31.635Z,-1.80
2023-02-14T21:37:58.452Z,-1.80
2023-02-14T21:40:25.324Z,-1.90
2023-02-14T21:42:52.047Z,-1.90
2023-02-14T21:45:37.315Z,-1.90
2023-02-14T21:48:23.076Z,-1.90
2023-02-14T21:50:49.905Z,-1.90
2023-02-14T21:53:16.716Z,-1.90
2023-02-14T21:55:45.919Z,-2.00
2023-02-14T21:58:13.172Z,-2.00
2023-02-14T22:00:40.027Z,-1.90
2023-02-14T22:03:06.839Z,-2.00
2023-02-14T22:05:33.603Z,-2.00
2023-02-14T22:08:00.353Z,-2.00
2023-02-14T22:10:27.148Z,-2.00
2023-02-14T22:12:53.880Z,-2.00
2023-02-14T22:15:20.596Z,-2.10
2023-02-14T22:17:47.346Z,-2.10
2023-02-14T22:20:14.086Z,-2.10
2023-02-14T22:22:40.829Z,-2.10
2023-02-14T22:25:07.793Z,-2.10
2023-02-14T22:27:39.090Z,-2.10
2023-02-14T22:30:07.420Z,-2.10
2023-02-14T22:32:34.137Z,-2.10
2023-02-14T22:35:00.913Z,-2.20
2023-02-14T22:37:27.679Z,-2.20
2023-02-14T22:39:54.513Z,-2.20
2023-02-14T22:42:21.276Z,-2.30
2023-02-14T22:44:48.075Z,-2.20
2023-02-14T22:47:14.869Z,-2.30
2023-02-14T22:49:41.569Z,-2.30
2023-02-14T22:52:08.374Z,-2.30
2023-02-14T22:54:35.215Z,-2.30
2023-02-14T22:57:01.983Z,-2.30
2023-02-14T22:59:31.128Z,-2.30
2023-02-14T23:01:58.252Z,-2.30
2023-02-14T23:04:25.903Z,-2.40
2023-02-14T23:06:53.249Z,-2.40
2023-02-14T23:09:20.520Z,-2.40
2023-02-14T23:11:47.710Z,-2.40
2023-02-14T23:14:35.086Z,-2.40
2023-02-14T23:17:14.590Z,-2.40
2023-02-14T23:20:01.235Z,-2.40
2023-02-14T23:22:36.798Z,-2.40
2023-02-14T23:25:07.579Z,-2.50
2023-02-14T23:27:41.711Z,-2.40
2023-02-14T23:30:13.647Z,-2.50
2023-02-14T23:32:40.621Z,-2.50
2023-02-14T23:35:07.556Z,-2.50
2023-02-14T23:37:34.532Z,-2.50
2023-02-14T23:40:01.323Z,-2.50
2023-02-14T23:42:28.248Z,-2.50
2023-02-14T23:45:15.005Z,-2.50
2023-02-14T23:47:41.844Z,-2.50
2023-02-14T23:50:09.031Z,-2.50
2023-02-14T23:52:38.301Z,-2.50
2023-02-14T23:55:05.679Z,-2.50
2023-02-14T23:57:32.422Z,-2.50
